sensor_id;sensor_type;location;lat;lon;timestamp;P1;durP1;ratioP1;P2;durP2;ratioP2
75516;SDS011;64097;52.548;13.406;2022-11-18T06:05:45;27.30;;;21.40;;
75516;SDS011;64097;52.548;13.406;2022-11-18T06:08:12;27.77;;;22.63;;
75516;SDS011;64097;52.548;13.406;2022-11-18T06:10:41;27.10;;;21.60;;
75516;SDS011;64097;52.548;13.406;2022-11-18T06:13:08;23.05;;;19.65;;
75516;SDS011;64097;52.548;13.406;2022-11-18T06:15:39;25.08;;;20.95;;
75516;SDS011;64097;52.548;13.406;2022-11-18T06:18:09;23.95;;;19.67;;
75516;SDS011;64097;52.548;13.406;2022-11-18T06:20:36;21.95;;;17.98;;
75516;SDS011;64097;52.548;13.406;2022-11-18T06:23:04;22.38;;;19.13;;
75516;SDS011;64097;52.548;13.406;2022-11-18T06:25:30;20.25;;;17.15;;
75516;SDS011;64097;52.548;13.406;2022-11-18T06:27:57;24.52;;;19.95;;
75516;SDS011;64097;52.548;13.406;2022-11-18T06:30:25;22.33;;;18.65;;
75516;SDS011;64097;52.548;13.406;2022-11-18T06:32:51;23.73;;;19.75;;
75516;SDS011;64097;52.548;13.406;2022-11-18T06:35:16;23.80;;;19.85;;
75516;SDS011;64097;52.548;13.406;2022-11-18T06:37:42;22.50;;;18.90;;
75516;SDS011;64097;52.548;13.406;2022-11-18T06:40:08;23.92;;;19.55;;
75516;SDS011;64097;52.548;13.406;2022-11-18T06:42:34;22.83;;;18.73;;
75516;SDS011;64097;52.548;13.406;2022-11-18T06:45:19;24.52;;;20.10;;
75516;SDS011;64097;52.548;13.406;2022-11-18T06:47:44;22.73;;;18.92;;
75516;SDS011;64097;52.548;13.406;2022-11-18T06:50:10;20.48;;;18.20;;
75516;SDS011;64097;52.548;13.406;2022-11-18T06:52:36;23.10;;;19.70;;
75516;SDS011;64097;52.548;13.406;2022-11-18T06:55:01;28.23;;;20.88;;
75516;SDS011;64097;52.548;13.406;2022-11-18T06:57:30;23.23;;;20.20;;
75516;SDS011;64097;52.548;13.406;2022-11-18T06:59:55;22.80;;;19.33;;
75516;SDS011;64097;52.548;13.406;2022-11-18T07:02:21;23.75;;;19.70;;
75516;SDS011;64097;52.548;13.406;2022-11-18T07:04:47;23.67;;;19.42;;
75516;SDS011;64097;52.548;13.406;2022-11-18T07:07:12;22.58;;;19.30;;
75516;SDS011;64097;52.548;13.406;2022-11-18T07:09:38;23.85;;;19.45;;
75516;SDS011;64097;52.548;13.406;2022-11-18T07:12:04;22.95;;;18.98;;
75516;SDS011;64097;52.548;13.406;2022-11-18T07:14:30;24.95;;;20.27;;
75516;SDS011;64097;52.548;13.406;2022-11-18T07:16:56;25.83;;;20.75;;
75516;SDS011;64097;52.548;13.406;2022-11-18T07:19:22;23.52;;;19.25;;
75516;SDS011;64097;52.548;13.406;2022-11-18T07:21:47;23.33;;;19.20;;
75516;SDS011;64097;52.548;13.406;2022-11-18T07:24:14;23.35;;;19.02;;
75516;SDS011;64097;52.548;13.406;2022-11-18T07:26:40;25.15;;;19.90;;
75516;SDS011;64097;52.548;13.406;2022-11-18T07:29:06;24.30;;;20.17;;
75516;SDS011;64097;52.548;13.406;2022-11-18T07:31:34;24.08;;;19.30;;
75516;SDS011;64097;52.548;13.406;2022-11-18T07:34:04;25.40;;;20.35;;
75516;SDS011;64097;52.548;13.406;2022-11-18T07:36:30;23.55;;;18.98;;
75516;SDS011;64097;52.548;13.406;2022-11-18T07:38:59;24.08;;;19.90;;
75516;SDS011;64097;52.548;13.406;2022-11-18T07:41:26;29.95;;;20.58;;
75516;SDS011;64097;52.548;13.406;2022-11-18T07:43:53;24.55;;;20.65;;
75516;SDS011;64097;52.548;13.406;2022-11-18T07:48:50;24.60;;;19.98;;
75516;SDS011;64097;52.548;13.406;2022-11-18T07:51:19;25.67;;;21.15;;
75516;SDS011;64097;52.548;13.406;2022-11-18T07:53:47;28.88;;;21.65;;
75516;SDS011;64097;52.548;13.406;2022-11-18T07:56:13;25.73;;;19.83;;
75516;SDS011;64097;52.548;13.406;2022-11-18T07:58:40;26.50;;;20.42;;
75516;SDS011;64097;52.548;13.406;2022-11-18T08:01:10;28.00;;;21.48;;
75516;SDS011;64097;52.548;13.406;2022-11-18T08:03:37;24.90;;;20.05;;
75516;SDS011;64097;52.548;13.406;2022-11-18T08:06:04;25.92;;;21.33;;
75516;SDS011;64097;52.548;13.406;2022-11-18T08:08:32;27.67;;;20.88;;
75516;SDS011;64097;52.548;13.406;2022-11-18T08:10:59;26.73;;;21.33;;
75516;SDS011;64097;52.548;13.406;2022-11-18T08:13:26;22.63;;;18.75;;
75516;SDS011;64097;52.548;13.406;2022-11-18T08:15:52;25.90;;;20.27;;
75516;SDS011;64097;52.548;13.406;2022-11-18T08:18:18;21.05;;;17.23;;
75516;SDS011;64097;52.548;13.406;2022-11-18T08:20:45;24.02;;;19.92;;
75516;SDS011;64097;52.548;13.406;2022-11-18T08:23:11;25.40;;;20.05;;
75516;SDS011;64097;52.548;13.406;2022-11-18T08:25:38;24.17;;;19.95;;
75516;SDS011;64097;52.548;13.406;2022-11-18T08:28:05;23.45;;;20.00;;
75516;SDS011;64097;52.548;13.406;2022-11-18T08:30:32;22.83;;;17.90;;
75516;SDS011;64097;52.548;13.406;2022-11-18T08:32:59;21.05;;;17.17;;
75516;SDS011;64097;52.548;13.406;2022-11-18T08:35:25;23.38;;;20.02;;
75516;SDS011;64097;52.548;13.406;2022-11-18T08:37:51;22.33;;;19.05;;
75516;SDS011;64097;52.548;13.406;2022-11-18T08:40:17;23.10;;;19.10;;
75516;SDS011;64097;52.548;13.406;2022-11-18T08:42:43;22.95;;;19.92;;
75516;SDS011;64097;52.548;13.406;2022-11-18T08:45:09;22.40;;;17.88;;
75516;SDS011;64097;52.548;13.406;2022-11-18T08:47:35;23.08;;;19.60;;
75516;SDS011;64097;52.548;13.406;2022-11-18T08:50:06;21.25;;;17.95;;
75516;SDS011;64097;52.548;13.406;2022-11-18T08:52:33;24.65;;;18.95;;
75516;SDS011;64097;52.548;13.406;2022-11-18T08:55:00;22.40;;;19.02;;
75516;SDS011;64097;52.548;13.406;2022-11-18T08:57:27;22.95;;;18.00;;
75516;SDS011;64097;52.548;13.406;2022-11-18T08:59:53;23.20;;;18.30;;
75516;SDS011;64097;52.548;13.406;2022-11-18T09:02:19;23.65;;;18.83;;
75516;SDS011;64097;52.548;13.406;2022-11-18T09:04:47;22.73;;;18.92;;
75516;SDS011;64097;52.548;13.406;2022-11-18T09:07:14;21.50;;;17.98;;
75516;SDS011;64097;52.548;13.406;2022-11-18T09:09:40;23.08;;;17.98;;
75516;SDS011;64097;52.548;13.406;2022-11-18T09:12:06;21.05;;;17.17;;
75516;SDS011;64097;52.548;13.406;2022-11-18T09:14:33;20.77;;;17.60;;
75516;SDS011;64097;52.548;13.406;2022-11-18T09:17:00;21.50;;;18.15;;
75516;SDS011;64097;52.548;13.406;2022-11-18T09:19:27;21.17;;;17.40;;
75516;SDS011;64097;52.548;13.406;2022-11-18T09:21:53;19.38;;;16.88;;
75516;SDS011;64097;52.548;13.406;2022-11-18T09:24:19;19.73;;;16.10;;
75516;SDS011;64097;52.548;13.406;2022-11-18T09:26:45;20.85;;;16.92;;
75516;SDS011;64097;52.548;13.406;2022-11-18T09:29:13;20.08;;;16.50;;
75516;SDS011;64097;52.548;13.406;2022-11-18T09:31:39;21.77;;;16.80;;
75516;SDS011;64097;52.548;13.406;2022-11-18T09:34:05;19.17;;;16.10;;
75516;SDS011;64097;52.548;13.406;2022-11-18T09:36:34;20.33;;;16.25;;
75516;SDS011;64097;52.548;13.406;2022-11-18T09:39:03;18.42;;;15.48;;
75516;SDS011;64097;52.548;13.406;2022-11-18T09:47:27;17.55;;;13.02;;
75516;SDS011;64097;52.548;13.406;2022-11-18T09:50:05;14.93;;;12.70;;
75516;SDS011;64097;52.548;13.406;2022-11-18T09:52:39;14.65;;;11.45;;
75516;SDS011;64097;52.548;13.406;2022-11-18T09:55:27;15.10;;;11.25;;
75516;SDS011;64097;52.548;13.406;2022-11-18T09:57:54;13.30;;;11.27;;
75516;SDS011;64097;52.548;13.406;2022-11-18T10:00:22;13.43;;;11.30;;
75516;SDS011;64097;52.548;13.406;2022-11-18T10:05:50;10.18;;;8.60;;
75516;SDS011;64097;52.548;13.406;2022-11-18T10:09:01;11.30;;;10.07;;
75516;SDS011;64097;52.548;13.406;2022-11-18T10:11:40;9.75;;;8.27;;
75516;SDS011;64097;52.548;13.406;2022-11-18T10:25:18;7.68;;;6.90;;
75516;SDS011;64097;52.548;13.406;2022-11-18T10:27:45;8.70;;;7.68;;
75516;SDS011;64097;52.548;13.406;2022-11-18T10:30:15;7.93;;;7.13;;
75516;SDS011;64097;52.548;13.406;2022-11-18T10:32:59;8.73;;;7.82;;
75516;SDS011;64097;52.548;13.406;2022-11-18T10:35:32;7.45;;;6.60;;
75516;SDS011;64097;52.548;13.406;2022-11-18T10:40:31;8.07;;;7.25;;
75516;SDS011;64097;52.548;13.406;2022-11-18T10:42:58;9.57;;;7.60;;
75516;SDS011;64097;52.548;13.406;2022-11-18T10:45:31;8.25;;;7.40;;
75516;SDS011;64097;52.548;13.406;2022-11-18T10:47:58;9.33;;;7.50;;
75516;SDS011;64097;52.548;13.406;2022-11-18T10:53:24;8.63;;;7.55;;
75516;SDS011;64097;52.548;13.406;2022-11-18T10:55:59;8.05;;;7.22;;
75516;SDS011;64097;52.548;13.406;2022-11-18T10:58:28;8.75;;;7.25;;
75516;SDS011;64097;52.548;13.406;2022-11-18T11:01:05;9.55;;;8.32;;
75516;SDS011;64097;52.548;13.406;2022-11-18T11:03:52;8.30;;;7.43;;
75516;SDS011;64097;52.548;13.406;2022-11-18T11:09:03;9.82;;;8.32;;
75516;SDS011;64097;52.548;13.406;2022-11-18T11:11:40;10.88;;;8.55;;
75516;SDS011;64097;52.548;13.406;2022-11-18T11:17:02;9.77;;;8.52;;
75516;SDS011;64097;52.548;13.406;2022-11-18T11:20:09;10.95;;;8.73;;
75516;SDS011;64097;52.548;13.406;2022-11-18T11:22:38;11.05;;;9.20;;
75516;SDS011;64097;52.548;13.406;2022-11-18T11:25:15;9.00;;;7.65;;
75516;SDS011;64097;52.548;13.406;2022-11-18T11:27:54;10.38;;;8.20;;
75516;SDS011;64097;52.548;13.406;2022-11-18T11:30:54;12.27;;;9.27;;
75516;SDS011;64097;52.548;13.406;2022-11-18T11:34:31;10.40;;;8.88;;
75516;SDS011;64097;52.548;13.406;2022-11-18T11:42:21;10.50;;;8.93;;
75516;SDS011;64097;52.548;13.406;2022-11-18T11:50:53;11.77;;;9.20;;
75516;SDS011;64097;52.548;13.406;2022-11-18T11:53:26;9.30;;;8.30;;
75516;SDS011;64097;52.548;13.406;2022-11-18T11:56:33;9.85;;;8.57;;
75516;SDS011;64097;52.548;13.406;2022-11-18T12:07:41;11.00;;;8.60;;
75516;SDS011;64097;52.548;13.406;2022-11-18T12:15:43;8.73;;;7.68;;
75516;SDS011;64097;52.548;13.406;2022-11-18T12:26:48;8.55;;;7.68;;
75516;SDS011;64097;52.548;13.406;2022-11-18T12:29:20;9.98;;;7.57;;
75516;SDS011;64097;52.548;13.406;2022-11-18T12:31:51;9.87;;;7.87;;
75516;SDS011;64097;52.548;13.406;2022-11-18T12:39:56;8.07;;;7.00;;
75516;SDS011;64097;52.548;13.406;2022-11-18T12:42:39;8.60;;;7.10;;
75516;SDS011;64097;52.548;13.406;2022-11-18T12:53:31;7.55;;;6.68;;
75516;SDS011;64097;52.548;13.406;2022-11-18T12:56:11;8.63;;;7.00;;
75516;SDS011;64097;52.548;13.406;2022-11-18T12:58:54;7.80;;;6.78;;
75516;SDS011;64097;52.548;13.406;2022-11-18T13:01:24;7.50;;;6.40;;
75516;SDS011;64097;52.548;13.406;2022-11-18T13:03:52;8.98;;;7.28;;
75516;SDS011;64097;52.548;13.406;2022-11-18T13:06:30;7.55;;;6.75;;
75516;SDS011;64097;52.548;13.406;2022-11-18T13:09:03;8.93;;;7.28;;
75516;SDS011;64097;52.548;13.406;2022-11-18T13:11:45;7.68;;;6.88;;
75516;SDS011;64097;52.548;13.406;2022-11-18T13:14:29;9.02;;;6.95;;
75516;SDS011;64097;52.548;13.406;2022-11-18T13:17:31;8.13;;;6.82;;
75516;SDS011;64097;52.548;13.406;2022-11-18T13:20:20;8.55;;;7.40;;
75516;SDS011;64097;52.548;13.406;2022-11-18T13:22:58;8.60;;;6.90;;
75516;SDS011;64097;52.548;13.406;2022-11-18T13:25:44;8.98;;;7.72;;
75516;SDS011;64097;52.548;13.406;2022-11-18T13:28:19;9.80;;;7.63;;
75516;SDS011;64097;52.548;13.406;2022-11-18T13:30:50;9.48;;;7.07;;
75516;SDS011;64097;52.548;13.406;2022-11-18T13:33:35;9.43;;;7.88;;
75516;SDS011;64097;52.548;13.406;2022-11-18T13:36:22;8.00;;;7.20;;
75516;SDS011;64097;52.548;13.406;2022-11-18T13:38:54;8.13;;;6.75;;
75516;SDS011;64097;52.548;13.406;2022-11-18T13:41:28;7.25;;;6.55;;
75516;SDS011;64097;52.548;13.406;2022-11-18T13:44:11;8.30;;;6.32;;
75516;SDS011;64097;52.548;13.406;2022-11-18T13:46:47;6.50;;;5.90;;
75516;SDS011;64097;52.548;13.406;2022-11-18T13:49:19;7.55;;;6.75;;
75516;SDS011;64097;52.548;13.406;2022-11-18T13:51:53;8.93;;;6.65;;
75516;SDS011;64097;52.548;13.406;2022-11-18T13:54:22;6.63;;;5.90;;
75516;SDS011;64097;52.548;13.406;2022-11-18T13:56:50;7.57;;;6.22;;
75516;SDS011;64097;52.548;13.406;2022-11-18T13:59:18;6.47;;;5.88;;
